TimeCDT,TemperatureF,Dew PointF,Humidity,Sea Level PressureIn,VisibilityMPH,Wind Direction,Wind SpeedMPH,Gust SpeedMPH,PrecipitationIn,Events,Conditions,WindDirDegrees,DateUTC
12:15 AM,69.8,59.0,68,30.08,10.0,Calm,Calm,-,N/A,,Clear,0,2013-08-28 05:15:00
12:35 AM,69.8,59.0,68,30.07,9.0,Calm,Calm,-,N/A,,Clear,0,2013-08-28 05:35:00
12:55 AM,69.8,60.8,73,30.07,10.0,Calm,Calm,-,N/A,,Clear,0,2013-08-28 05:55:00
1:16 AM,69.8,59.0,68,30.07,10.0,Calm,Calm,-,N/A,,Clear,0,2013-08-28 06:16:00
1:35 AM,69.8,59.0,68,30.07,10.0,Calm,Calm,-,N/A,,Clear,0,2013-08-28 06:35:00
1:55 AM,69.8,59.0,68,30.06,10.0,Calm,Calm,-,N/A,,Clear,0,2013-08-28 06:55:00
2:15 AM,69.8,59.0,68,30.06,10.0,Calm,Calm,-,N/A,,Clear,0,2013-08-28 07:15:00
2:35 AM,68.0,59.0,73,30.05,10.0,Calm,Calm,-,N/A,,Clear,0,2013-08-28 07:35:00
2:55 AM,68.0,59.0,73,30.06,10.0,Calm,Calm,-,N/A,,Clear,0,2013-08-28 07:55:00
3:15 AM,68.0,59.0,73,30.05,10.0,Calm,Calm,-,N/A,,Clear,0,2013-08-28 08:15:00
3:55 AM,68.0,57.2,68,30.05,10.0,Calm,Calm,-,N/A,,Clear,0,2013-08-28 08:55:00
4:15 AM,69.8,59.0,68,30.05,10.0,Calm,Calm,-,N/A,,Clear,0,2013-08-28 09:15:00
4:35 AM,68.0,57.2,68,30.04,10.0,Calm,Calm,-,N/A,,Clear,0,2013-08-28 09:35:00
5:15 AM,69.8,59.0,68,30.05,10.0,SW,3.5,-,N/A,,Clear,230,2013-08-28 10:15:00
5:56 AM,68.0,57.2,68,30.06,10.0,Calm,Calm,-,N/A,,Clear,0,2013-08-28 10:56:00
6:15 AM,66.2,57.2,73,30.07,10.0,Calm,Calm,-,N/A,,Clear,0,2013-08-28 11:15:00
6:55 AM,64.4,57.2,77,30.08,8.0,Calm,Calm,-,N/A,,Clear,0,2013-08-28 11:55:00
7:15 AM,66.2,57.2,73,30.09,8.0,Calm,Calm,-,N/A,,Clear,0,2013-08-28 12:15:00
7:35 AM,66.2,57.2,73,30.09,9.0,Calm,Calm,-,N/A,,Clear,0,2013-08-28 12:35:00
8:55 AM,73.4,60.8,65,30.10,10.0,Calm,Calm,-,N/A,,Clear,0,2013-08-28 13:55:00
9:15 AM,75.2,60.8,61,30.10,10.0,Calm,Calm,-,N/A,,Clear,0,2013-08-28 14:15:00
9:36 AM,78.8,62.6,57,30.10,10.0,Calm,Calm,-,N/A,,Clear,0,2013-08-28 14:36:00
9:55 AM,78.8,62.6,57,30.10,10.0,Calm,Calm,-,N/A,,Clear,0,2013-08-28 14:55:00
11:15 AM,87.8,64.4,46,30.10,10.0,WSW,6.9,-,N/A,,Clear,250,2013-08-28 16:15:00
11:35 AM,87.8,64.4,46,30.10,10.0,SW,4.6,-,N/A,,Clear,230,2013-08-28 16:35:00
11:55 AM,89.6,64.4,43,30.09,10.0,West,4.6,-,N/A,,Clear,260,2013-08-28 16:55:00
12:15 PM,89.6,62.6,40,30.09,10.0,SW,5.8,-,N/A,,Clear,230,2013-08-28 17:15:00
12:35 PM,91.4,62.6,38,30.08,10.0,West,6.9,-,N/A,,Mostly Cloudy,260,2013-08-28 17:35:00
12:55 PM,89.6,62.6,40,30.07,10.0,SW,4.6,-,N/A,,Mostly Cloudy,230,2013-08-28 17:55:00
1:15 PM,91.4,62.6,38,30.07,10.0,WSW,6.9,-,N/A,,Mostly Cloudy,240,2013-08-28 18:15:00
1:35 PM,91.4,62.6,38,30.07,10.0,SW,3.5,-,N/A,,Mostly Cloudy,220,2013-08-28 18:35:00
2:35 PM,91.4,62.6,38,30.06,10.0,NNE,5.8,-,N/A,,Mostly Cloudy,20,2013-08-28 19:35:00
3:15 PM,93.2,62.6,36,30.05,10.0,NW,3.5,-,N/A,,Unknown,310,2013-08-28 20:15:00
3:55 PM,93.2,64.4,38,30.04,10.0,NNE,8.1,-,N/A,,Unknown,20,2013-08-28 20:55:00
4:15 PM,93.2,64.4,38,30.04,10.0,NE,4.6,-,N/A,,Unknown,50,2013-08-28 21:15:00
4:35 PM,91.4,64.4,41,30.04,10.0,NE,4.6,-,N/A,,Unknown,50,2013-08-28 21:35:00
4:55 PM,91.4,64.4,41,30.03,10.0,East,3.5,-,N/A,,Unknown,90,2013-08-28 21:55:00
5:15 PM,91.4,64.4,41,30.03,10.0,Calm,Calm,-,N/A,,Unknown,0,2013-08-28 22:15:00
5:35 PM,91.4,64.4,41,30.03,10.0,Calm,Calm,-,N/A,,Unknown,0,2013-08-28 22:35:00
6:15 PM,89.6,64.4,43,30.03,10.0,Calm,Calm,-,N/A,,Unknown,0,2013-08-28 23:15:00
6:35 PM,89.6,64.4,43,30.03,10.0,Calm,Calm,-,N/A,,Unknown,0,2013-08-28 23:35:00
6:55 PM,87.8,66.2,49,30.03,10.0,Calm,Calm,-,N/A,,Unknown,0,2013-08-28 23:55:00
7:15 PM,87.8,64.4,46,30.03,10.0,SE,3.5,-,N/A,,Unknown,130,2013-08-29 00:15:00
7:35 PM,87.8,64.4,46,30.04,10.0,Calm,Calm,-,N/A,,Unknown,0,2013-08-29 00:35:00
8:15 PM,82.4,66.2,58,30.04,10.0,Calm,Calm,-,N/A,,Unknown,0,2013-08-29 01:15:00
8:55 PM,80.6,64.4,58,30.04,10.0,Calm,Calm,-,N/A,,Unknown,0,2013-08-29 01:55:00
9:35 PM,78.8,64.4,61,30.05,10.0,SSW,3.5,-,N/A,,Unknown,200,2013-08-29 02:35:00
9:55 PM,78.8,66.2,65,30.06,10.0,NNE,5.8,-,N/A,,Unknown,30,2013-08-29 02:55:00
10:55 PM,75.2,64.4,69,30.06,10.0,Calm,Calm,-,N/A,,Clear,0,2013-08-29 03:55:00
11:15 PM,75.2,64.4,69,30.06,10.0,Calm,Calm,-,N/A,,Clear,0,2013-08-29 04:15:00
11:36 PM,75.2,62.6,65,30.06,10.0,Calm,Calm,-,N/A,,Clear,0,2013-08-29 04:36:00